Time,TemperatureF,DewpointF,PressureIn,WindDirection,WindDirectionDegrees,WindSpeedMPH,WindSpeedGustMPH,Humidity,HourlyPrecipIn,Conditions,Clouds,dailyrainin,SoftwareType,DateUTC
2013-04-29 00:03:00,56.0,36.0,29.70,ESE,112,4.0,7.0,47,0.00,,,0.28,,2013-04-29 04:03:00,
2013-04-29 00:13:00,56.0,36.0,29.70,ESE,112,4.0,7.0,47,0.00,,,0.28,,2013-04-29 04:13:00,
2013-04-29 00:23:00,55.0,36.0,29.69,SE,135,3.0,15.0,48,0.00,,,0.28,,2013-04-29 04:23:00,
2013-04-29 00:33:00,55.0,36.0,29.69,SW,225,1.0,7.0,48,0.00,,,0.28,,2013-04-29 04:33:00,
2013-04-29 00:43:00,55.0,36.0,29.69,SW,225,1.0,7.0,48,0.00,,,0.28,,2013-04-29 04:43:00,
2013-04-29 00:52:00,55.0,36.0,29.70,South,182,5.0,9.0,48,0.00,,,0.28,,2013-04-29 04:52:00,
2013-04-29 01:02:00,55.0,36.0,29.70,SW,225,3.0,7.0,49,0.00,,,0.28,,2013-04-29 05:02:00,
2013-04-29 01:12:00,55.0,36.0,29.70,SW,225,3.0,7.0,49,0.00,,,0.28,,2013-04-29 05:12:00,
2013-04-29 01:22:00,55.0,36.0,29.69,SSE,158,3.0,8.0,49,0.00,,,0.28,,2013-04-29 05:22:00,
2013-04-29 01:32:00,55.0,37.0,29.69,South,180,5.0,6.0,50,0.00,,,0.28,,2013-04-29 05:32:00,
2013-04-29 01:42:00,55.0,37.0,29.69,South,180,5.0,6.0,50,0.00,,,0.28,,2013-04-29 05:42:00,
2013-04-29 01:52:00,55.0,37.0,29.70,NE,42,0.0,13.0,50,0.00,,,0.28,,2013-04-29 05:52:00,
2013-04-29 02:02:00,55.0,37.0,29.71,WNW,292,1.0,3.0,51,0.00,,,0.28,,2013-04-29 06:02:00,
2013-04-29 02:11:00,55.0,37.0,29.71,WNW,292,1.0,3.0,51,0.00,,,0.28,,2013-04-29 06:11:00,
2013-04-29 02:21:00,53.0,37.0,29.72,NW,315,0.0,2.0,54,0.00,,,0.28,,2013-04-29 06:21:00,
2013-04-29 02:32:00,52.0,37.0,29.72,NNW,338,1.0,2.0,57,0.00,,,0.28,,2013-04-29 06:32:00,
2013-04-29 02:42:00,52.0,37.0,29.72,NNW,338,1.0,2.0,57,0.00,,,0.28,,2013-04-29 06:42:00,
2013-04-29 02:52:00,52.0,37.0,29.72,NNW,338,1.0,2.0,57,0.00,,,0.28,,2013-04-29 06:52:00,
2013-04-29 03:01:00,49.0,36.0,29.71,SE,135,0.0,1.0,60,0.00,,,0.28,,2013-04-29 07:01:00,
2013-04-29 03:11:00,49.0,36.0,29.71,SE,135,0.0,1.0,60,0.00,,,0.28,,2013-04-29 07:11:00,
2013-04-29 03:21:00,48.0,35.0,29.72,WSW,248,0.0,0.0,61,0.00,,,0.28,,2013-04-29 07:21:00,
2013-04-29 03:32:00,48.0,36.0,29.71,SE,135,1.0,1.0,63,0.00,,,0.28,,2013-04-29 07:32:00,
2013-04-29 03:41:00,48.0,36.0,29.71,SE,135,1.0,1.0,63,0.00,,,0.28,,2013-04-29 07:41:00,
2013-04-29 03:52:00,48.0,36.0,29.70,SSE,163,1.0,2.0,63,0.00,,,0.28,,2013-04-29 07:52:00,
2013-04-29 04:02:00,49.0,37.0,29.70,South,180,1.0,2.0,64,0.00,,,0.28,,2013-04-29 08:02:00,
2013-04-29 04:11:00,49.0,37.0,29.70,South,180,1.0,2.0,64,0.00,,,0.28,,2013-04-29 08:11:00,
2013-04-29 04:21:00,49.0,37.0,29.70,SSE,165,1.0,2.0,64,0.00,,,0.28,,2013-04-29 08:21:00,
2013-04-29 04:31:00,49.0,37.0,29.70,SSE,165,1.0,2.0,64,0.00,,,0.28,,2013-04-29 08:31:00,
2013-04-29 04:42:00,49.0,37.0,29.70,SSE,165,1.0,2.0,64,0.00,,,0.28,,2013-04-29 08:42:00,
2013-04-29 04:52:00,48.0,39.0,29.72,WSW,257,3.0,5.0,72,0.00,,,0.28,,2013-04-29 08:52:00,
2013-04-29 05:01:00,47.0,39.0,29.71,SSW,202,2.0,3.0,75,0.00,,,0.28,,2013-04-29 09:01:00,
2013-04-29 05:12:00,47.0,39.0,29.71,SSW,202,2.0,3.0,75,0.00,,,0.28,,2013-04-29 09:12:00,
2013-04-29 05:21:00,47.0,40.0,29.71,West,267,2.0,5.0,77,0.00,,,0.28,,2013-04-29 09:21:00,
2013-04-29 05:32:00,47.0,41.0,29.72,WSW,248,1.0,5.0,79,0.00,,,0.28,,2013-04-29 09:32:00,
2013-04-29 05:42:00,47.0,41.0,29.72,WSW,248,1.0,5.0,79,0.00,,,0.28,,2013-04-29 09:42:00,
2013-04-29 05:53:00,47.0,41.0,29.71,SW,229,3.0,5.0,80,0.00,,,0.28,,2013-04-29 09:53:00,
2013-04-29 06:02:00,47.0,41.0,29.71,WSW,248,1.0,3.0,80,0.00,,,0.28,,2013-04-29 10:02:00,
2013-04-29 06:12:00,47.0,41.0,29.71,WSW,248,1.0,3.0,80,0.00,,,0.28,,2013-04-29 10:12:00,
2013-04-29 06:23:00,47.0,41.0,29.71,WSW,248,0.0,3.0,81,0.00,,,0.28,,2013-04-29 10:23:00,
2013-04-29 06:32:00,46.0,41.0,29.71,SSW,202,2.0,2.0,81,0.08,,,0.36,,2013-04-29 10:32:00,
2013-04-29 06:42:00,46.0,41.0,29.71,SSW,202,2.0,2.0,81,0.08,,,0.36,,2013-04-29 10:42:00,
2013-04-29 06:52:00,46.0,41.0,29.71,WSW,256,0.0,3.0,83,0.08,,,0.36,,2013-04-29 10:52:00,
2013-04-29 07:02:00,46.0,41.0,29.72,WNW,292,1.0,2.0,83,0.08,,,0.36,,2013-04-29 11:02:00,
2013-04-29 07:12:00,46.0,41.0,29.72,WNW,292,1.0,2.0,83,0.08,,,0.36,,2013-04-29 11:12:00,
2013-04-29 07:21:00,45.0,40.0,29.72,WNW,292,0.0,0.0,82,0.08,,,0.36,,2013-04-29 11:21:00,
2013-04-29 07:32:00,44.0,39.0,29.72,WNW,291,0.0,2.0,81,0.00,,,0.36,,2013-04-29 11:32:00,
2013-04-29 07:42:00,44.0,39.0,29.72,WNW,291,0.0,2.0,81,0.00,,,0.36,,2013-04-29 11:42:00,
2013-04-29 07:52:00,44.0,39.0,29.72,WSW,248,0.0,0.0,83,0.00,,,0.36,,2013-04-29 11:52:00,
2013-04-29 08:01:00,45.0,40.0,29.73,SSE,158,0.0,0.0,84,0.00,,,0.36,,2013-04-29 12:01:00,
2013-04-29 08:12:00,45.0,40.0,29.73,SSE,158,0.0,0.0,84,0.00,,,0.36,,2013-04-29 12:12:00,
2013-04-29 08:22:00,45.0,40.0,29.73,SSE,158,0.0,0.0,84,0.00,,,0.36,,2013-04-29 12:22:00,
2013-04-29 08:31:00,46.0,41.0,29.74,SSE,158,1.0,5.0,83,0.00,,,0.36,,2013-04-29 12:31:00,
2013-04-29 08:42:00,46.0,41.0,29.74,SSE,158,1.0,5.0,83,0.00,,,0.36,,2013-04-29 12:42:00,
2013-04-29 08:52:00,49.0,45.0,29.75,SSE,159,0.0,17.0,85,0.00,,,0.36,,2013-04-29 12:52:00,
2013-04-29 09:01:00,55.0,48.0,29.75,SE,135,0.0,0.0,78,0.00,,,0.36,,2013-04-29 13:01:00,
2013-04-29 09:11:00,55.0,48.0,29.75,SE,135,0.0,0.0,78,0.00,,,0.36,,2013-04-29 13:11:00,
2013-04-29 09:21:00,60.0,50.0,29.74,SE,135,0.0,0.0,70,0.00,,,0.36,,2013-04-29 13:21:00,
2013-04-29 09:31:00,61.0,50.0,29.75,SE,135,0.0,0.0,66,0.00,,,0.36,,2013-04-29 13:31:00,
2013-04-29 09:42:00,61.0,50.0,29.75,SE,135,0.0,0.0,66,0.00,,,0.36,,2013-04-29 13:42:00,
2013-04-29 09:52:00,60.0,49.0,29.74,SE,135,0.0,1.0,68,0.00,,,0.36,,2013-04-29 13:52:00,
2013-04-29 10:01:00,60.0,50.0,29.74,SE,125,0.0,48.0,69,0.00,,,0.36,,2013-04-29 14:01:00,
2013-04-29 10:11:00,60.0,50.0,29.74,SE,125,0.0,48.0,69,0.00,,,0.36,,2013-04-29 14:11:00,
2013-04-29 10:21:00,59.0,49.0,29.75,ESE,116,1.0,1.0,70,0.00,,,0.36,,2013-04-29 14:21:00,
2013-04-29 10:32:00,60.0,50.0,29.75,ESE,105,0.0,1.0,70,0.00,,,0.36,,2013-04-29 14:32:00,
2013-04-29 10:42:00,60.0,50.0,29.75,ESE,105,0.0,1.0,70,0.00,,,0.36,,2013-04-29 14:42:00,
2013-04-29 10:52:00,61.0,51.0,29.74,East,98,1.0,1.0,70,0.00,,,0.36,,2013-04-29 14:52:00,
2013-04-29 11:01:00,62.0,51.0,29.75,North,0,0.0,3.0,67,0.00,,,0.36,,2013-04-29 15:01:00,
2013-04-29 11:12:00,62.0,51.0,29.75,North,0,0.0,3.0,67,0.00,,,0.36,,2013-04-29 15:12:00,
2013-04-29 11:21:00,64.0,52.0,29.75,ENE,68,0.0,1.0,65,0.00,,,0.36,,2013-04-29 15:21:00,
2013-04-29 11:33:00,65.0,52.0,29.74,NNW,327,1.0,1.0,62,0.00,,,0.36,,2013-04-29 15:33:00,
2013-04-29 11:42:00,65.0,52.0,29.74,NNW,327,1.0,1.0,62,0.00,,,0.36,,2013-04-29 15:42:00,
2013-04-29 11:53:00,65.0,51.0,29.75,NNE,22,1.0,3.0,60,0.00,,,0.36,,2013-04-29 15:53:00,
2013-04-29 12:02:00,66.0,52.0,29.75,North,0,1.0,2.0,60,0.00,,,0.36,,2013-04-29 16:02:00,
2013-04-29 12:12:00,66.0,52.0,29.75,North,0,1.0,2.0,60,0.00,,,0.36,,2013-04-29 16:12:00,
2013-04-29 12:23:00,66.0,52.0,29.75,NE,40,2.0,3.0,60,0.00,,,0.36,,2013-04-29 16:23:00,
2013-04-29 12:33:00,66.0,51.0,29.75,ENE,76,2.0,3.0,59,0.00,,,0.36,,2013-04-29 16:33:00,
2013-04-29 12:42:00,66.0,51.0,29.75,ENE,76,2.0,3.0,59,0.00,,,0.36,,2013-04-29 16:42:00,
2013-04-29 12:52:00,67.0,52.0,29.75,SE,131,2.0,6.0,58,0.00,,,0.36,,2013-04-29 16:52:00,
2013-04-29 13:02:00,66.0,50.0,29.75,ESE,106,4.0,5.0,57,0.00,,,0.36,,2013-04-29 17:02:00,
2013-04-29 13:12:00,66.0,50.0,29.75,ESE,106,4.0,5.0,57,0.00,,,0.36,,2013-04-29 17:12:00,
2013-04-29 13:22:00,66.0,50.0,29.75,NE,47,3.0,5.0,57,0.00,,,0.36,,2013-04-29 17:22:00,
2013-04-29 13:32:00,65.0,50.0,29.75,ESE,123,0.0,5.0,58,0.00,,,0.36,,2013-04-29 17:32:00,
2013-04-29 13:42:00,65.0,50.0,29.75,ESE,123,0.0,5.0,58,0.00,,,0.36,,2013-04-29 17:42:00,
2013-04-29 13:52:00,65.0,49.0,29.75,NE,37,1.0,3.0,57,0.00,,,0.36,,2013-04-29 17:52:00,
2013-04-29 14:01:00,65.0,50.0,29.75,ENE,57,2.0,3.0,58,0.00,,,0.36,,2013-04-29 18:01:00,
2013-04-29 14:13:00,65.0,50.0,29.75,ENE,57,2.0,3.0,58,0.00,,,0.36,,2013-04-29 18:13:00,
2013-04-29 14:22:00,65.0,50.0,29.75,NNE,22,2.0,5.0,59,0.00,,,0.36,,2013-04-29 18:22:00,
2013-04-29 14:32:00,65.0,50.0,29.75,ESE,118,2.0,5.0,58,0.00,,,0.36,,2013-04-29 18:32:00,
2013-04-29 14:42:00,65.0,50.0,29.75,ESE,118,2.0,5.0,58,0.00,,,0.36,,2013-04-29 18:42:00,
2013-04-29 14:52:00,65.0,50.0,29.74,ESE,109,1.0,3.0,58,0.00,,,0.36,,2013-04-29 18:52:00,
2013-04-29 15:01:00,65.0,50.0,29.73,South,170,3.0,3.0,59,0.00,,,0.36,,2013-04-29 19:01:00,
2013-04-29 15:11:00,65.0,50.0,29.73,South,170,3.0,3.0,59,0.00,,,0.36,,2013-04-29 19:11:00,
2013-04-29 15:21:00,65.0,50.0,29.73,ENE,75,1.0,2.0,58,0.00,,,0.36,,2013-04-29 19:21:00,
2013-04-29 15:31:00,65.0,50.0,29.73,ENE,78,1.0,6.0,58,0.00,,,0.36,,2013-04-29 19:31:00,
2013-04-29 15:41:00,65.0,50.0,29.73,ENE,78,1.0,6.0,58,0.00,,,0.36,,2013-04-29 19:41:00,
2013-04-29 15:52:00,64.0,49.0,29.73,ESE,102,3.0,8.0,59,0.00,,,0.36,,2013-04-29 19:52:00,
2013-04-29 16:02:00,63.0,49.0,29.73,NE,45,2.0,2.0,60,0.00,,,0.36,,2013-04-29 20:02:00,
2013-04-29 16:11:00,63.0,49.0,29.73,NE,45,2.0,2.0,60,0.00,,,0.36,,2013-04-29 20:11:00,
2013-04-29 16:21:00,62.0,49.0,29.72,SE,131,2.0,6.0,62,0.00,,,0.36,,2013-04-29 20:21:00,
2013-04-29 16:32:00,62.0,49.0,29.72,ESE,112,1.0,6.0,63,0.00,,,0.36,,2013-04-29 20:32:00,
2013-04-29 16:42:00,62.0,49.0,29.72,ESE,112,1.0,6.0,63,0.00,,,0.36,,2013-04-29 20:42:00,
2013-04-29 16:52:00,61.0,49.0,29.71,East,84,1.0,5.0,64,0.00,,,0.08,,2013-04-29 20:52:00,
2013-04-29 17:01:00,61.0,49.0,29.71,ENE,74,4.0,7.0,64,0.00,,,0.08,,2013-04-29 21:01:00,
2013-04-29 17:11:00,61.0,49.0,29.71,ENE,74,4.0,7.0,64,0.00,,,0.08,,2013-04-29 21:11:00,
2013-04-29 17:21:00,61.0,49.0,29.71,ENE,74,4.0,7.0,64,0.00,,,0.08,,2013-04-29 21:21:00,
2013-04-29 17:33:00,61.0,49.0,29.70,East,100,2.0,8.0,64,0.00,,,0.08,,2013-04-29 21:33:00,
2013-04-29 17:42:00,61.0,49.0,29.70,East,100,2.0,8.0,64,0.00,,,0.08,,2013-04-29 21:42:00,
2013-04-29 17:53:00,61.0,49.0,29.70,ENE,68,5.0,6.0,64,0.00,,,0.08,,2013-04-29 21:53:00,
2013-04-29 18:02:00,60.0,48.0,29.70,ENE,76,3.0,6.0,65,0.00,,,0.08,,2013-04-29 22:02:00,
2013-04-29 18:13:00,60.0,48.0,29.70,ENE,76,3.0,6.0,65,0.00,,,0.08,,2013-04-29 22:13:00,
2013-04-29 18:23:00,60.0,49.0,29.70,SSW,193,1.0,3.0,66,0.00,,,0.08,,2013-04-29 22:23:00,
2013-04-29 18:32:00,60.0,49.0,29.69,ESE,103,0.0,3.0,66,0.00,,,0.08,,2013-04-29 22:32:00,
2013-04-29 18:42:00,60.0,49.0,29.69,ESE,103,0.0,3.0,66,0.00,,,0.08,,2013-04-29 22:42:00,
2013-04-29 18:52:00,60.0,48.0,29.70,ESE,110,3.0,3.0,65,0.00,,,0.08,,2013-04-29 22:52:00,
2013-04-29 19:02:00,59.0,48.0,29.70,East,80,0.0,3.0,66,0.00,,,0.08,,2013-04-29 23:02:00,
2013-04-29 19:11:00,59.0,48.0,29.70,East,80,0.0,3.0,66,0.00,,,0.08,,2013-04-29 23:11:00,
2013-04-29 19:22:00,58.0,47.0,29.69,ENE,65,1.0,2.0,66,0.00,,,0.08,,2013-04-29 23:22:00,
2013-04-29 19:32:00,58.0,47.0,29.69,East,80,1.0,3.0,67,0.00,,,0.08,,2013-04-29 23:32:00,
2013-04-29 19:42:00,58.0,47.0,29.69,East,80,1.0,3.0,67,0.00,,,0.08,,2013-04-29 23:42:00,
2013-04-29 19:52:00,57.0,46.0,29.69,SSE,152,0.0,3.0,67,0.00,,,0.08,,2013-04-29 23:52:00,
2013-04-29 20:01:00,56.0,45.0,29.69,NE,39,0.0,1.0,67,0.00,,,0.08,,2013-04-30 00:01:00,
2013-04-29 20:11:00,56.0,45.0,29.69,NE,39,0.0,1.0,67,0.00,,,0.08,,2013-04-30 00:11:00,
2013-04-29 20:21:00,56.0,46.0,29.70,NE,45,2.0,2.0,68,0.00,,,0.08,,2013-04-30 00:21:00,
2013-04-29 20:32:00,55.0,45.0,29.70,ESE,107,15.0,45.0,68,0.00,,,0.08,,2013-04-30 00:32:00,
2013-04-29 20:41:00,55.0,45.0,29.70,ESE,107,15.0,45.0,68,0.00,,,0.08,,2013-04-30 00:41:00,
2013-04-29 20:52:00,54.0,44.0,29.70,SE,132,0.0,52.0,68,0.00,,,0.08,,2013-04-30 00:52:00,
2013-04-29 21:02:00,52.0,43.0,29.69,SSE,151,2.0,2.0,70,0.00,,,0.08,,2013-04-30 01:02:00,
2013-04-29 21:11:00,52.0,43.0,29.69,SSE,151,2.0,2.0,70,0.00,,,0.08,,2013-04-30 01:11:00,
2013-04-29 21:21:00,51.0,42.0,29.70,SE,135,0.0,1.0,70,0.00,,,0.08,,2013-04-30 01:21:00,
2013-04-29 21:32:00,49.0,40.0,29.70,SE,131,1.0,1.0,71,0.00,,,0.08,,2013-04-30 01:32:00,
2013-04-29 21:41:00,49.0,40.0,29.70,SE,131,1.0,1.0,71,0.00,,,0.08,,2013-04-30 01:41:00,
2013-04-29 21:52:00,48.0,40.0,29.70,ESE,112,0.0,1.0,74,0.00,,,0.08,,2013-04-30 01:52:00,
2013-04-29 22:01:00,47.0,39.0,29.70,SSE,158,0.0,1.0,75,0.00,,,0.08,,2013-04-30 02:01:00,
2013-04-29 22:11:00,47.0,39.0,29.70,SSE,158,0.0,1.0,75,0.00,,,0.08,,2013-04-30 02:11:00,
2013-04-29 22:21:00,47.0,40.0,29.70,SSE,158,0.0,3.0,77,0.00,,,0.08,,2013-04-30 02:21:00,
2013-04-29 22:31:00,47.0,41.0,29.70,South,171,0.0,3.0,80,0.00,,,0.08,,2013-04-30 02:31:00,
2013-04-29 22:41:00,47.0,41.0,29.70,South,171,0.0,3.0,80,0.00,,,0.08,,2013-04-30 02:41:00,
2013-04-29 22:51:00,47.0,41.0,29.70,East,90,0.0,0.0,80,0.00,,,0.08,,2013-04-30 02:51:00,
2013-04-29 23:01:00,47.0,41.0,29.70,ENE,68,0.0,1.0,81,0.00,,,0.08,,2013-04-30 03:01:00,
2013-04-29 23:11:00,47.0,42.0,29.70,SSE,149,0.0,0.0,82,0.00,,,0.08,,2013-04-30 03:11:00,
2013-04-29 23:21:00,47.0,42.0,29.70,SSE,149,0.0,0.0,82,0.00,,,0.08,,2013-04-30 03:21:00,
2013-04-29 23:33:00,48.0,43.0,29.70,SSW,198,0.0,2.0,84,0.00,,,0.08,,2013-04-30 03:33:00,
2013-04-29 23:42:00,48.0,43.0,29.70,SSW,198,0.0,2.0,84,0.00,,,0.08,,2013-04-30 03:42:00,
2013-04-29 23:52:00,49.0,45.0,29.69,ESE,112,1.0,3.0,85,0.00,,,0.08,,2013-04-30 03:52:00,